createdAt,value
2019-02-21T00:01:05.519Z,25.27
2019-02-21T00:04:05.012Z,19.03
2019-02-21T00:07:04.158Z,21.63
2019-02-21T00:10:03.332Z,20.87
2019-02-21T00:13:02.642Z,21.67
2019-02-21T00:16:01.667Z,22.27
2019-02-21T00:19:01.494Z,21.60
2019-02-21T00:22:00.541Z,20.70
2019-02-21T00:24:59.716Z,20.77
2019-02-21T00:27:58.833Z,20.93
2019-02-21T00:30:57.940Z,21.27
2019-02-21T00:33:57.864Z,21.07
2019-02-21T00:36:57.834Z,22.77
2019-02-21T00:39:57.853Z,20.10
2019-02-21T00:42:57.201Z,18.43
2019-02-21T00:45:56.369Z,19.13
2019-02-21T00:48:55.513Z,21.13
2019-02-21T00:51:55.067Z,23.83
2019-02-21T00:54:54.260Z,20.63
2019-02-21T00:57:53.260Z,19.00
2019-02-21T01:00:52.488Z,17.80
2019-02-21T01:03:52.421Z,20.33
2019-02-21T01:06:51.636Z,22.77
2019-02-21T01:09:51.712Z,21.43
2019-02-21T01:12:51.116Z,18.67
2019-02-21T01:15:50.637Z,16.93
2019-02-21T01:18:50.628Z,17.43
2019-02-21T01:21:49.716Z,19.70
2019-02-21T01:24:48.979Z,18.40
2019-02-21T01:27:48.234Z,20.43
2019-02-21T01:30:56.633Z,20.80
2019-02-21T01:33:48.547Z,22.53
2019-02-21T01:36:48.578Z,18.80
2019-02-21T01:39:47.807Z,17.57
2019-02-21T01:42:47.476Z,21.03
2019-02-21T01:45:47.561Z,21.70
2019-02-21T01:48:47.702Z,20.40
2019-02-21T01:51:48.046Z,20.60
2019-02-21T01:54:48.364Z,18.47
2019-02-21T01:57:48.560Z,21.73
2019-02-21T02:00:48.710Z,19.47
2019-02-21T02:03:48.973Z,21.27
2019-02-21T02:06:49.229Z,21.13
2019-02-21T02:09:49.431Z,20.50
2019-02-21T02:12:49.720Z,20.60
2019-02-21T02:15:49.741Z,20.33
2019-02-21T02:18:49.997Z,23.10
2019-02-21T02:21:49.865Z,19.73
2019-02-21T02:24:50.427Z,22.33
2019-02-21T02:27:50.281Z,20.03
2019-02-21T02:30:50.462Z,24.30
2019-02-21T02:33:50.751Z,20.37
2019-02-21T02:36:51.293Z,20.27
2019-02-21T02:39:51.468Z,20.10
2019-02-21T02:42:51.581Z,21.33
2019-02-21T02:45:52.086Z,21.13
2019-02-21T02:48:52.295Z,21.93
2019-02-21T02:51:52.503Z,22.27
2019-02-21T02:54:52.629Z,21.97
2019-02-21T02:57:52.916Z,22.33
2019-02-21T03:00:53.138Z,22.80
2019-02-21T03:03:53.518Z,22.30
2019-02-21T03:06:53.745Z,26.83
2019-02-21T03:09:54.171Z,23.40
2019-02-21T03:12:53.601Z,21.87
2019-02-21T03:15:53.665Z,22.13
2019-02-21T03:18:53.617Z,23.93
2019-02-21T03:21:52.757Z,24.73
2019-02-21T03:24:51.800Z,24.03
2019-02-21T03:27:51.299Z,23.73
2019-02-21T03:30:50.603Z,23.97
2019-02-21T03:33:49.762Z,21.37
2019-02-21T03:36:49.287Z,24.20
2019-02-21T03:39:48.567Z,21.67
2019-02-21T03:42:48.116Z,21.53
2019-02-21T03:45:47.364Z,28.13
2019-02-21T03:48:46.715Z,21.97
2019-02-21T03:51:46.122Z,21.27
2019-02-21T03:54:45.467Z,19.87
2019-02-21T03:57:44.775Z,19.30
2019-02-21T04:00:44.823Z,21.63
2019-02-21T04:03:44.152Z,22.27
2019-02-21T04:06:43.379Z,21.40
2019-02-21T04:09:42.693Z,21.43
2019-02-21T04:12:41.908Z,21.97
2019-02-21T04:15:41.317Z,23.37
2019-02-21T04:18:40.591Z,23.70
2019-02-21T04:21:39.693Z,24.07
2019-02-21T04:24:39.071Z,24.13
2019-02-21T04:27:38.285Z,24.33
2019-02-21T04:30:37.452Z,28.63
2019-02-21T04:33:36.673Z,23.03
2019-02-21T04:36:35.751Z,20.97
2019-02-21T04:39:34.822Z,19.67
2019-02-21T04:42:34.234Z,20.57
2019-02-21T04:45:33.458Z,20.27
2019-02-21T04:48:32.533Z,22.20
2019-02-21T04:51:31.656Z,20.60
2019-02-21T04:54:31.036Z,21.13
2019-02-21T04:57:30.989Z,21.80
2019-02-21T05:00:30.147Z,20.23
2019-02-21T05:03:29.452Z,23.40
2019-02-21T05:06:29.641Z,21.60
2019-02-21T05:09:28.785Z,22.50
2019-02-21T05:12:28.867Z,22.43
2019-02-21T05:15:28.177Z,21.47
2019-02-21T05:18:27.983Z,20.17
2019-02-21T05:21:27.340Z,21.23
2019-02-21T05:24:26.542Z,23.03
2019-02-21T05:27:27.691Z,23.70
2019-02-21T05:30:27.368Z,21.20
2019-02-21T05:33:47.077Z,21.73
2019-02-21T05:37:10.520Z,24.33
2019-02-21T05:40:29.776Z,25.23
2019-02-21T05:43:37.382Z,27.87
2019-02-21T05:50:10.912Z,21.93
2019-02-21T05:53:16.292Z,24.70
2019-02-21T05:56:17.568Z,26.13
2019-02-21T05:59:18.689Z,26.10
2019-02-21T06:05:34.062Z,31.53
2019-02-21T06:08:35.279Z,30.47
2019-02-21T06:11:36.406Z,26.97
2019-02-21T06:14:40.763Z,32.53
2019-02-21T06:17:41.862Z,33.47
2019-02-21T06:24:28.467Z,28.13
2019-02-21T06:30:44.254Z,33.17
2019-02-21T06:33:43.393Z,31.37
2019-02-21T06:36:43.356Z,31.07
2019-02-21T06:39:42.419Z,30.57
2019-02-21T06:42:41.533Z,32.37
2019-02-21T06:45:40.858Z,32.47
2019-02-21T06:48:39.995Z,34.00
2019-02-21T06:51:40.005Z,27.83
2019-02-21T06:54:40.028Z,30.07
2019-02-21T06:57:40.300Z,34.03
2019-02-21T07:00:39.494Z,31.20
2019-02-21T07:03:38.581Z,32.93
2019-02-21T07:06:39.337Z,30.23
2019-02-21T07:09:25.905Z,30.27
2019-02-21T07:12:32.049Z,28.87
2019-02-21T07:15:31.246Z,29.07
2019-02-21T07:18:31.197Z,29.20
2019-02-21T07:21:31.152Z,29.80
2019-02-21T07:24:31.598Z,30.00
2019-02-21T07:27:31.305Z,29.70
2019-02-21T07:30:31.226Z,29.27
2019-02-21T07:33:31.270Z,26.50
2019-02-21T07:36:31.367Z,29.87
2019-02-21T07:39:36.172Z,29.83
2019-02-21T07:42:31.562Z,31.00
2019-02-21T07:45:30.985Z,27.13
2019-02-21T07:48:30.201Z,30.70
2019-02-21T07:51:29.353Z,30.37
2019-02-21T07:54:28.660Z,26.53
2019-02-21T07:57:27.793Z,26.30
2019-02-21T08:00:27.062Z,26.90
2019-02-21T08:03:31.981Z,28.20
2019-02-21T08:06:27.749Z,28.77
2019-02-21T08:09:27.933Z,27.83
2019-02-21T08:12:28.065Z,28.20
2019-02-21T08:15:27.862Z,26.17
2019-02-21T08:18:27.353Z,26.33
2019-02-21T08:21:26.801Z,25.90
2019-02-21T08:24:26.096Z,30.10
2019-02-21T08:27:25.471Z,26.47
2019-02-21T08:30:24.789Z,32.27
2019-02-21T08:33:28.874Z,28.83
2019-02-21T08:36:28.142Z,29.80
2019-02-21T08:39:27.599Z,31.43
2019-02-21T08:42:26.937Z,30.30
2019-02-21T08:45:26.283Z,33.13
2019-02-21T08:48:25.429Z,33.07
2019-02-21T08:51:24.507Z,30.70
2019-02-21T08:54:24.471Z,31.23
2019-02-21T08:57:23.707Z,30.07
2019-02-21T09:00:22.802Z,29.87
2019-02-21T09:03:21.983Z,33.23
2019-02-21T09:06:21.587Z,33.00
2019-02-21T09:09:21.437Z,29.73
2019-02-21T09:12:20.627Z,29.83
2019-02-21T09:15:19.799Z,29.13
2019-02-21T09:18:19.061Z,35.17
2019-02-21T09:21:18.574Z,31.20
2019-02-21T09:24:35.261Z,30.33
2019-02-21T09:27:18.824Z,31.10
2019-02-21T09:30:17.950Z,31.17
2019-02-21T09:33:20.254Z,26.77
2019-02-21T09:36:18.991Z,29.47
2019-02-21T09:39:18.119Z,29.37
2019-02-21T09:42:17.969Z,26.60
2019-02-21T09:45:17.295Z,30.47
2019-02-21T09:48:17.198Z,26.73
2019-02-21T09:51:18.354Z,27.90
2019-02-21T09:54:19.157Z,25.83
2019-02-21T09:57:18.238Z,27.83
2019-02-21T10:00:18.215Z,27.50
2019-02-21T10:03:18.250Z,26.07
2019-02-21T10:06:17.600Z,23.87
2019-02-21T10:09:17.655Z,27.40
2019-02-21T10:12:16.740Z,24.70
2019-02-21T10:15:16.047Z,23.17
2019-02-21T10:18:15.483Z,23.40
2019-02-21T10:21:15.466Z,22.90
2019-02-21T10:24:15.330Z,27.33
2019-02-21T10:27:14.511Z,25.60
2019-02-21T10:30:14.511Z,27.80
2019-02-21T10:33:13.608Z,27.50
2019-02-21T10:36:13.528Z,28.17
2019-02-21T10:39:13.546Z,25.17
2019-02-21T10:42:13.474Z,29.37
2019-02-21T10:45:13.506Z,29.93
2019-02-21T10:48:12.870Z,29.97
2019-02-21T10:51:12.176Z,29.97
2019-02-21T10:54:11.412Z,27.20
2019-02-21T10:57:10.785Z,33.00
2019-02-21T11:00:09.919Z,30.57
2019-02-21T11:03:10.034Z,30.70
2019-02-21T11:06:09.391Z,29.87
2019-02-21T11:09:10.547Z,32.83
2019-02-21T11:12:09.927Z,31.03
2019-02-21T11:15:09.267Z,28.80
2019-02-21T11:18:08.447Z,27.97
2019-02-21T11:21:07.539Z,30.73
2019-02-21T11:24:06.831Z,34.30
2019-02-21T11:27:05.928Z,32.33
2019-02-21T11:30:04.985Z,34.73
2019-02-21T11:33:04.234Z,36.90
2019-02-21T11:36:04.137Z,35.63
2019-02-21T11:39:04.003Z,35.57
2019-02-21T11:42:03.521Z,36.93
2019-02-21T11:45:02.697Z,35.70
2019-02-21T11:48:02.039Z,41.93
2019-02-21T11:51:01.202Z,40.90
2019-02-21T11:54:00.296Z,39.77
2019-02-21T11:56:59.451Z,42.83
2019-02-21T11:59:58.734Z,39.17
2019-02-21T12:02:58.255Z,37.60
2019-02-21T12:05:57.506Z,42.50
2019-02-21T12:08:56.685Z,41.13
2019-02-21T12:11:55.837Z,37.97
2019-02-21T12:14:55.939Z,43.20
2019-02-21T12:17:55.155Z,41.97
2019-02-21T12:20:55.165Z,39.03
2019-02-21T12:23:54.317Z,38.97
2019-02-21T12:26:53.629Z,36.00
2019-02-21T12:29:52.993Z,39.57
2019-02-21T12:32:52.492Z,40.50
2019-02-21T12:35:52.705Z,38.33
2019-02-21T12:38:39.084Z,39.30
2019-02-21T12:41:45.343Z,39.47
2019-02-21T12:44:44.410Z,35.37
2019-02-21T12:47:50.966Z,38.63
2019-02-21T12:50:45.071Z,36.67
2019-02-21T12:53:44.284Z,35.27
2019-02-21T12:56:43.631Z,34.77
2019-02-21T12:59:42.777Z,33.67
2019-02-21T13:02:42.062Z,34.50
2019-02-21T13:05:41.541Z,36.60
2019-02-21T13:08:42.659Z,36.77
2019-02-21T13:11:41.943Z,33.87
2019-02-21T13:14:42.054Z,34.70
2019-02-21T13:17:41.291Z,34.03
2019-02-21T13:20:40.793Z,30.60
2019-02-21T13:23:42.701Z,32.47
2019-02-21T13:26:41.325Z,33.63
2019-02-21T13:29:41.409Z,31.43
2019-02-21T13:32:41.703Z,30.90
2019-02-21T13:35:52.243Z,31.00
2019-02-21T13:38:43.713Z,32.40
2019-02-21T13:41:42.898Z,28.67
2019-02-21T13:44:42.649Z,29.33
2019-02-21T13:47:42.875Z,33.57
2019-02-21T13:50:43.180Z,28.73
2019-02-21T13:53:43.440Z,27.20
2019-02-21T13:56:42.630Z,25.83
2019-02-21T13:59:42.574Z,27.10
2019-02-21T14:02:41.869Z,30.23
2019-02-21T14:05:41.861Z,29.97
2019-02-21T14:08:41.799Z,31.07
2019-02-21T14:11:40.928Z,30.00
2019-02-21T14:14:42.517Z,28.20
2019-02-21T14:17:42.002Z,32.17
2019-02-21T14:20:45.570Z,33.77
2019-02-21T14:23:42.252Z,35.53
2019-02-21T14:26:42.140Z,30.40
2019-02-21T14:29:41.363Z,31.87
2019-02-21T14:32:40.469Z,32.23
2019-02-21T14:35:40.481Z,31.80
2019-02-21T14:38:39.713Z,34.17
2019-02-21T14:41:39.721Z,33.53
2019-02-21T14:44:38.990Z,35.20
2019-02-21T14:47:38.302Z,30.30
2019-02-21T14:50:37.630Z,31.17
2019-02-21T14:53:36.786Z,30.20
2019-02-21T14:56:36.225Z,30.90
2019-02-21T14:59:35.505Z,30.67
2019-02-21T15:02:34.792Z,30.20
2019-02-21T15:05:33.806Z,30.10
2019-02-21T15:08:32.874Z,28.80
2019-02-21T15:11:32.019Z,27.23
2019-02-21T15:14:31.922Z,29.67
2019-02-21T15:17:30.975Z,28.17
2019-02-21T15:20:36.862Z,26.50
2019-02-21T15:23:31.411Z,27.27
2019-02-21T15:26:31.410Z,27.17
2019-02-21T15:29:31.463Z,30.00
2019-02-21T15:32:30.849Z,26.77
2019-02-21T15:35:29.878Z,25.73
2019-02-21T15:38:29.842Z,26.13
2019-02-21T15:41:29.058Z,26.20
2019-02-21T15:44:28.430Z,23.87
2019-02-21T15:47:27.659Z,30.70
2019-02-21T15:50:27.055Z,28.97
2019-02-21T15:53:27.108Z,27.83
2019-02-21T15:56:27.155Z,26.30
2019-02-21T15:59:27.199Z,25.50
2019-02-21T16:02:27.168Z,24.50
2019-02-21T16:05:26.543Z,24.87
2019-02-21T16:08:26.496Z,25.67
2019-02-21T16:11:25.865Z,21.83
2019-02-21T16:14:25.049Z,22.60
2019-02-21T16:17:24.492Z,22.00
2019-02-21T16:20:23.742Z,22.30
2019-02-21T16:23:23.625Z,19.87
2019-02-21T16:26:23.610Z,22.37
2019-02-21T16:29:22.957Z,23.37
2019-02-21T16:32:22.398Z,21.97
2019-02-21T16:35:22.562Z,23.73
2019-02-21T16:38:21.681Z,18.77
2019-02-21T16:41:21.828Z,25.40
2019-02-21T16:44:21.021Z,21.43
2019-02-21T16:47:21.119Z,27.73
2019-02-21T16:50:29.206Z,24.13
2019-02-21T16:53:21.619Z,25.03
2019-02-21T16:56:20.766Z,27.60
2019-02-21T16:59:20.143Z,23.77
2019-02-21T17:02:19.578Z,25.50
2019-02-21T17:05:18.862Z,25.87
2019-02-21T17:08:18.153Z,23.53
2019-02-21T17:11:17.489Z,25.20
2019-02-21T17:14:17.650Z,24.57
2019-02-21T17:17:16.911Z,25.83
2019-02-21T17:20:16.140Z,23.80
2019-02-21T17:23:22.845Z,23.90
2019-02-21T17:26:18.172Z,27.27
2019-02-21T17:29:17.471Z,25.00
2019-02-21T17:32:17.605Z,25.77
2019-02-21T17:35:16.902Z,25.23
2019-02-21T17:38:16.209Z,25.13
2019-02-21T17:41:16.420Z,28.17
2019-02-21T17:44:15.696Z,24.90
2019-02-21T17:47:15.137Z,29.77
2019-02-21T17:50:15.147Z,23.97
2019-02-21T17:53:14.306Z,22.53
2019-02-21T17:56:13.564Z,24.10
2019-02-21T17:59:12.755Z,23.33
2019-02-21T18:02:12.119Z,23.33
2019-02-21T18:05:11.440Z,19.97
2019-02-21T18:08:10.691Z,20.20
2019-02-21T18:11:12.615Z,21.67
2019-02-21T18:14:12.087Z,21.60
2019-02-21T18:17:12.294Z,19.40
2019-02-21T18:20:12.295Z,21.00
2019-02-21T18:23:12.597Z,24.00
2019-02-21T18:26:12.679Z,23.07
2019-02-21T18:29:12.059Z,22.10
2019-02-21T18:32:12.138Z,24.23
2019-02-21T18:35:12.299Z,27.70
2019-02-21T18:38:12.355Z,25.90
2019-02-21T18:41:11.414Z,28.23
2019-02-21T18:44:10.831Z,30.60
2019-02-21T18:47:09.994Z,31.53
2019-02-21T18:50:09.267Z,28.53
2019-02-21T18:53:08.558Z,34.30
2019-02-21T18:56:08.632Z,34.27
2019-02-21T18:59:08.669Z,32.10
2019-02-21T19:02:08.158Z,33.40
2019-02-21T19:05:08.439Z,30.00
2019-02-21T19:08:08.536Z,35.20
2019-02-21T19:11:08.362Z,34.47
2019-02-21T19:14:08.562Z,30.63
2019-02-21T19:17:08.851Z,32.10
2019-02-21T19:20:09.215Z,29.17
2019-02-21T19:23:09.318Z,34.63
2019-02-21T19:26:09.349Z,32.83
2019-02-21T19:29:09.500Z,36.83
2019-02-21T19:32:09.646Z,37.00
2019-02-21T19:35:09.775Z,36.40
2019-02-21T19:38:11.018Z,40.90
2019-02-21T19:41:11.177Z,39.70
2019-02-21T19:44:10.994Z,40.07
2019-02-21T19:47:11.370Z,40.87
2019-02-21T19:50:11.246Z,47.50
2019-02-21T19:53:11.304Z,51.37
2019-02-21T19:56:11.471Z,51.93
2019-02-21T19:59:11.495Z,45.33
2019-02-21T20:05:06.602Z,50.80
2019-02-21T20:07:52.404Z,48.00
2019-02-21T20:10:38.276Z,44.97
2019-02-21T20:13:23.964Z,46.77
2019-02-21T20:16:09.568Z,47.90
2019-02-21T20:18:54.572Z,47.57
2019-02-21T20:21:39.800Z,47.83
2019-02-21T20:24:25.015Z,57.47
2019-02-21T20:27:10.308Z,47.40
2019-02-21T20:29:55.581Z,49.10
2019-02-21T20:32:41.012Z,46.87
2019-02-21T20:35:26.165Z,48.37
2019-02-21T20:38:11.554Z,45.90
2019-02-21T20:40:56.827Z,44.83
2019-02-21T20:43:42.504Z,50.17
2019-02-21T20:46:27.986Z,47.97
2019-02-21T20:49:13.493Z,48.77
2019-02-21T20:51:59.048Z,52.03
2019-02-21T20:54:44.780Z,48.00
2019-02-21T20:57:30.169Z,53.23
2019-02-21T21:00:17.619Z,53.33
2019-02-21T21:03:02.852Z,51.60
2019-02-21T21:05:47.706Z,58.00
2019-02-21T21:08:42.751Z,57.03
2019-02-21T21:11:20.183Z,57.47
2019-02-21T21:14:05.906Z,55.30
2019-02-21T21:16:51.198Z,57.93
2019-02-21T21:19:36.670Z,56.73
2019-02-21T21:22:22.292Z,57.67
2019-02-21T21:25:13.678Z,58.33
2019-02-21T21:27:59.124Z,54.90
2019-02-21T21:30:44.448Z,57.00
2019-02-21T21:33:29.831Z,66.07
2019-02-21T21:36:14.749Z,65.13
2019-02-21T21:38:59.652Z,62.10
2019-02-21T21:41:45.195Z,61.00
2019-02-21T21:44:30.356Z,66.87
2019-02-21T21:47:15.931Z,61.57
2019-02-21T21:50:01.310Z,59.03
2019-02-21T21:52:46.730Z,66.77
2019-02-21T21:55:31.999Z,59.83
2019-02-21T21:58:17.291Z,60.87
2019-02-21T22:01:03.113Z,63.20
2019-02-21T22:03:47.966Z,58.17
2019-02-21T22:06:33.454Z,66.13
2019-02-21T22:09:18.259Z,61.73
2019-02-21T22:12:03.905Z,59.37
2019-02-21T22:14:49.257Z,61.53
2019-02-21T22:17:36.093Z,59.97
2019-02-21T22:20:21.491Z,58.53
2019-02-21T22:23:06.668Z,61.17
2019-02-21T22:25:51.564Z,57.57
2019-02-21T22:28:36.715Z,59.30
2019-02-21T22:31:21.480Z,61.40
2019-02-21T22:34:06.389Z,59.87
2019-02-21T22:36:51.255Z,60.77
2019-02-21T22:39:36.743Z,58.23
2019-02-21T22:42:21.821Z,54.77
2019-02-21T22:45:08.156Z,63.53
2019-02-21T22:47:53.172Z,53.63
2019-02-21T22:50:37.892Z,55.93
2019-02-21T22:53:24.016Z,57.77
2019-02-21T22:56:09.042Z,57.60
2019-02-21T22:58:54.581Z,57.40
2019-02-21T23:01:39.781Z,57.60
2019-02-21T23:04:28.005Z,60.50
2019-02-21T23:07:25.762Z,56.93
2019-02-21T23:10:11.363Z,60.30
2019-02-21T23:12:56.539Z,55.77
2019-02-21T23:15:41.503Z,59.10
2019-02-21T23:18:26.595Z,58.67
2019-02-21T23:21:12.160Z,60.00
2019-02-21T23:23:57.112Z,59.07
2019-02-21T23:26:42.140Z,56.67
2019-02-21T23:29:27.345Z,59.40
2019-02-21T23:32:12.770Z,57.97
2019-02-21T23:34:59.083Z,56.90
2019-02-21T23:37:44.193Z,63.37
2019-02-21T23:40:29.038Z,59.20
2019-02-21T23:43:14.222Z,56.33
2019-02-21T23:45:59.800Z,59.70
2019-02-21T23:48:45.062Z,58.50
2019-02-21T23:51:30.303Z,59.93
2019-02-21T23:54:15.157Z,60.77
2019-02-21T23:57:00.085Z,56.77
2019-02-21T23:59:44.855Z,55.63
